createdAt,value
2018-10-21T00:00:04.788Z,5.32
2018-10-21T00:01:04.805Z,5.28
2018-10-21T00:02:04.621Z,5.38
2018-10-21T00:03:04.571Z,5.38
2018-10-21T00:04:04.454Z,5.35
2018-10-21T00:05:04.372Z,5.28
2018-10-21T00:06:04.286Z,5.31
2018-10-21T00:07:04.203Z,5.32
2018-10-21T00:08:04.120Z,5.34
2018-10-21T00:09:04.091Z,5.31
2018-10-21T00:10:03.957Z,5.28
2018-10-21T00:11:03.870Z,5.24
2018-10-21T00:12:03.785Z,5.31
2018-10-21T00:13:03.804Z,5.34
2018-10-21T00:14:03.618Z,5.32
2018-10-21T00:15:03.586Z,5.28
2018-10-21T00:16:03.451Z,5.29
2018-10-21T00:17:03.367Z,5.28
2018-10-21T00:18:03.286Z,5.31
2018-10-21T00:19:03.202Z,5.29
2018-10-21T00:20:03.118Z,5.28
2018-10-21T00:21:03.137Z,5.29
2018-10-21T00:22:02.951Z,5.29
2018-10-21T00:23:02.866Z,5.28
2018-10-21T00:24:02.784Z,5.18
2018-10-21T00:25:02.705Z,5.18
2018-10-21T00:26:02.615Z,5.20
2018-10-21T00:27:02.553Z,5.11
2018-10-21T00:28:02.500Z,5.08
2018-10-21T00:29:02.364Z,5.08
2018-10-21T00:30:02.280Z,5.03
2018-10-21T00:31:02.198Z,5.10
2018-10-21T00:32:02.114Z,4.88
2018-10-21T00:33:02.104Z,4.87
2018-10-21T00:34:01.946Z,4.88
2018-10-21T00:35:01.861Z,4.95
2018-10-21T00:36:01.779Z,4.83
2018-10-21T00:37:01.695Z,4.83
2018-10-21T00:38:01.611Z,4.91
2018-10-21T00:39:01.633Z,4.92
2018-10-21T00:40:01.449Z,4.93
2018-10-21T00:41:01.360Z,4.92
2018-10-21T00:42:01.275Z,5.03
2018-10-21T00:43:01.192Z,5.13
2018-10-21T00:44:01.108Z,5.14
2018-10-21T00:45:01.149Z,5.05
2018-10-21T00:46:00.939Z,5.03
2018-10-21T00:47:00.857Z,5.11
2018-10-21T00:48:00.773Z,5.13
2018-10-21T00:49:00.690Z,5.14
2018-10-21T00:50:00.708Z,5.08
2018-10-21T00:51:00.554Z,5.13
2018-10-21T00:52:00.439Z,5.08
2018-10-21T00:53:00.355Z,5.10
2018-10-21T00:54:00.311Z,5.03
2018-10-21T00:55:00.210Z,5.11
2018-10-21T00:56:00.105Z,5.13
2018-10-21T00:57:00.039Z,5.02
2018-10-21T00:57:59.938Z,4.85
2018-10-21T00:58:59.852Z,4.96
2018-10-21T00:59:59.768Z,4.85
2018-10-21T01:00:59.736Z,4.99
2018-10-21T01:01:59.600Z,4.95
2018-10-21T01:02:59.576Z,5.05
2018-10-21T01:03:59.473Z,4.99
2018-10-21T01:04:59.348Z,5.02
2018-10-21T01:05:59.265Z,5.02
2018-10-21T01:06:59.182Z,5.03
2018-10-21T01:07:59.096Z,5.00
2018-10-21T01:08:59.033Z,5.03
2018-10-21T01:09:58.929Z,4.91
2018-10-21T01:10:58.847Z,5.00
2018-10-21T01:11:58.763Z,4.95
2018-10-21T01:12:58.678Z,4.93
2018-10-21T01:13:58.601Z,4.84
2018-10-21T01:14:58.525Z,4.83
2018-10-21T01:15:58.427Z,4.87
2018-10-21T01:16:58.342Z,4.79
2018-10-21T01:17:58.258Z,4.77
2018-10-21T01:18:58.175Z,4.88
2018-10-21T01:19:58.090Z,4.76
2018-10-21T01:20:58.026Z,4.77
2018-10-21T01:21:57.922Z,4.77
2018-10-21T01:22:57.843Z,4.79
2018-10-21T01:23:57.754Z,4.72
2018-10-21T01:24:57.671Z,4.76
2018-10-21T01:25:57.586Z,4.76
2018-10-21T01:26:57.618Z,4.74
2018-10-21T01:27:57.418Z,4.65
2018-10-21T01:28:57.337Z,4.62
2018-10-21T01:29:57.251Z,4.54
2018-10-21T01:30:57.166Z,4.56
2018-10-21T01:31:57.082Z,4.54
2018-10-21T01:32:57.028Z,4.61
2018-10-21T01:33:56.913Z,4.58
2018-10-21T01:34:56.830Z,4.64
2018-10-21T01:35:56.746Z,4.66
2018-10-21T01:36:56.715Z,4.66
2018-10-21T01:37:56.715Z,4.68
2018-10-21T01:38:56.526Z,4.61
2018-10-21T01:39:56.410Z,4.65
2018-10-21T01:40:56.327Z,4.74
2018-10-21T01:41:56.244Z,4.72
2018-10-21T01:42:56.157Z,4.83
2018-10-21T01:43:56.073Z,4.66
2018-10-21T01:44:56.045Z,4.59
2018-10-21T01:45:55.906Z,4.72
2018-10-21T01:46:55.821Z,4.69
2018-10-21T01:47:55.738Z,4.73
2018-10-21T01:48:55.654Z,4.61
2018-10-21T01:49:55.568Z,4.59
2018-10-21T01:50:55.496Z,4.55
2018-10-21T01:51:55.400Z,4.62
2018-10-21T01:52:55.321Z,4.61
2018-10-21T01:53:55.232Z,4.62
2018-10-21T01:54:55.149Z,4.61
2018-10-21T01:55:55.066Z,4.55
2018-10-21T01:56:54.984Z,4.61
2018-10-21T01:57:54.896Z,4.65
2018-10-21T01:58:54.816Z,4.69
2018-10-21T01:59:54.727Z,4.66
2018-10-21T02:00:54.647Z,4.62
2018-10-21T02:01:54.559Z,4.58
2018-10-21T02:02:54.501Z,4.55
2018-10-21T02:03:54.394Z,4.54
2018-10-21T02:04:54.307Z,4.50
2018-10-21T02:05:54.222Z,4.54
2018-10-21T02:06:54.138Z,4.47
2018-10-21T02:07:54.107Z,4.43
2018-10-21T02:08:54.017Z,4.36
2018-10-21T02:09:53.886Z,4.47
2018-10-21T02:10:53.802Z,4.47
2018-10-21T02:11:53.719Z,4.36
2018-10-21T02:12:53.634Z,4.32
2018-10-21T02:13:53.549Z,4.46
2018-10-21T02:14:53.467Z,4.50
2018-10-21T02:15:53.380Z,4.46
2018-10-21T02:16:53.298Z,4.43
2018-10-21T02:17:53.263Z,4.28
2018-10-21T02:18:53.128Z,4.25
2018-10-21T02:19:53.045Z,4.18
2018-10-21T02:20:52.960Z,4.28
2018-10-21T02:21:52.875Z,4.28
2018-10-21T02:22:52.791Z,4.12
2018-10-21T02:23:52.708Z,4.07
2018-10-21T02:24:52.623Z,4.16
2018-10-21T02:25:52.538Z,4.18
2018-10-21T02:26:52.515Z,4.11
2018-10-21T02:27:52.368Z,4.20
2018-10-21T02:28:52.286Z,4.18
2018-10-21T02:29:52.204Z,4.08
2018-10-21T02:30:52.116Z,4.16
2018-10-21T02:31:52.037Z,4.08
2018-10-21T02:32:52.000Z,4.10
2018-10-21T02:33:51.863Z,4.12
2018-10-21T02:34:51.781Z,4.16
2018-10-21T02:35:51.695Z,4.04
2018-10-21T02:36:51.611Z,4.05
2018-10-21T02:37:51.525Z,3.94
2018-10-21T02:38:51.442Z,4.05
2018-10-21T02:39:51.361Z,4.11
2018-10-21T02:40:51.272Z,4.16
2018-10-21T02:41:51.188Z,4.15
2018-10-21T02:42:51.354Z,4.20
2018-10-21T02:43:51.019Z,4.10
2018-10-21T02:44:50.936Z,4.23
2018-10-21T02:45:50.851Z,4.15
2018-10-21T02:46:50.765Z,4.28
2018-10-21T02:47:50.731Z,4.16
2018-10-21T02:48:50.598Z,4.16
2018-10-21T02:49:50.512Z,4.10
2018-10-21T02:50:50.429Z,4.16
2018-10-21T02:51:50.345Z,4.05
2018-10-21T02:52:50.263Z,4.22
2018-10-21T02:53:50.175Z,4.08
2018-10-21T02:54:50.096Z,4.01
2018-10-21T02:55:50.007Z,4.04
2018-10-21T02:56:49.925Z,4.07
2018-10-21T02:57:49.837Z,4.07
2018-10-21T02:58:49.752Z,4.01
2018-10-21T02:59:49.669Z,3.98
2018-10-21T03:00:49.585Z,4.05
2018-10-21T03:01:49.499Z,4.08
2018-10-21T03:02:49.414Z,4.07
2018-10-21T03:03:49.331Z,4.02
2018-10-21T03:04:49.247Z,4.08
2018-10-21T03:05:49.165Z,4.02
2018-10-21T03:06:49.082Z,4.10
2018-10-21T03:07:48.992Z,4.07
2018-10-21T03:08:48.918Z,4.12
2018-10-21T03:09:48.828Z,4.11
2018-10-21T03:10:48.738Z,4.11
2018-10-21T03:11:48.654Z,4.11
2018-10-21T03:12:48.570Z,4.15
2018-10-21T03:13:48.496Z,4.05
2018-10-21T03:14:48.403Z,4.08
2018-10-21T03:15:48.315Z,4.07
2018-10-21T03:16:48.233Z,4.15
2018-10-21T03:17:48.149Z,4.04
2018-10-21T03:18:48.317Z,4.07
2018-10-21T03:19:47.979Z,4.15
2018-10-21T03:20:47.894Z,4.18
2018-10-21T03:21:47.815Z,4.04
2018-10-21T03:22:47.729Z,4.05
2018-10-21T03:23:47.639Z,4.16
2018-10-21T03:24:47.555Z,4.18
2018-10-21T03:25:47.470Z,4.19
2018-10-21T03:26:47.386Z,4.18
2018-10-21T03:27:47.301Z,4.16
2018-10-21T03:28:47.320Z,4.12
2018-10-21T03:29:47.134Z,4.12
2018-10-21T03:30:47.049Z,4.16
2018-10-21T03:31:46.965Z,4.05
2018-10-21T03:32:46.901Z,4.16
2018-10-21T03:33:46.866Z,4.18
2018-10-21T03:34:46.716Z,4.12
2018-10-21T03:35:46.629Z,4.12
2018-10-21T03:36:46.542Z,4.15
2018-10-21T03:37:46.458Z,4.04
2018-10-21T03:38:46.373Z,4.19
2018-10-21T03:39:46.289Z,4.05
2018-10-21T03:40:46.205Z,4.05
2018-10-21T03:41:46.120Z,4.08
2018-10-21T03:42:46.035Z,4.04
2018-10-21T03:43:45.951Z,4.04
2018-10-21T03:44:45.916Z,4.04
2018-10-21T03:45:45.781Z,4.08
2018-10-21T03:46:45.698Z,4.11
2018-10-21T03:47:45.613Z,4.07
2018-10-21T03:48:45.529Z,4.07
2018-10-21T03:49:45.693Z,4.00
2018-10-21T03:50:45.358Z,3.98
2018-10-21T03:51:45.276Z,4.00
2018-10-21T03:52:45.191Z,4.01
2018-10-21T03:53:45.106Z,4.02
2018-10-21T03:54:45.021Z,4.10
2018-10-21T03:55:44.936Z,3.92
2018-10-21T03:56:44.853Z,3.94
2018-10-21T03:57:44.767Z,3.98
2018-10-21T03:58:44.682Z,3.97
2018-10-21T03:59:44.598Z,4.01
2018-10-21T04:00:44.514Z,4.04
2018-10-21T04:01:44.428Z,4.01
2018-10-21T04:02:44.345Z,3.94
2018-10-21T04:03:44.261Z,3.94
2018-10-21T04:04:44.176Z,3.86
2018-10-21T04:05:44.190Z,3.89
2018-10-21T04:06:44.007Z,3.93
2018-10-21T04:07:43.922Z,3.94
2018-10-21T04:08:43.837Z,3.89
2018-10-21T04:09:43.752Z,3.82
2018-10-21T04:10:43.667Z,3.89
2018-10-21T04:11:43.684Z,3.83
2018-10-21T04:12:43.499Z,3.89
2018-10-21T04:13:43.415Z,3.87
2018-10-21T04:14:43.329Z,3.94
2018-10-21T04:15:43.244Z,3.87
2018-10-21T04:16:43.160Z,3.93
2018-10-21T04:17:43.076Z,4.00
2018-10-21T04:18:42.991Z,4.00
2018-10-21T04:19:42.907Z,3.94
2018-10-21T04:20:42.824Z,3.97
2018-10-21T04:21:42.737Z,4.02
2018-10-21T04:22:42.654Z,4.01
2018-10-21T04:23:42.568Z,3.87
2018-10-21T04:24:42.484Z,4.00
2018-10-21T04:25:42.403Z,3.84
2018-10-21T04:26:42.315Z,3.89
2018-10-21T04:27:42.330Z,3.83
2018-10-21T04:28:42.146Z,3.93
2018-10-21T04:29:42.064Z,3.84
2018-10-21T04:30:41.976Z,3.77
2018-10-21T04:31:41.892Z,3.84
2018-10-21T04:32:41.807Z,3.72
2018-10-21T04:33:41.722Z,3.72
2018-10-21T04:34:41.638Z,3.72
2018-10-21T04:35:41.554Z,3.68
2018-10-21T04:36:41.470Z,3.68
2018-10-21T04:37:41.384Z,3.59
2018-10-21T04:38:41.300Z,3.57
2018-10-21T04:39:41.215Z,3.61
2018-10-21T04:40:41.130Z,3.64
2018-10-21T04:41:41.046Z,3.65
2018-10-21T04:42:40.961Z,3.62
2018-10-21T04:43:40.877Z,3.59
2018-10-21T04:44:40.790Z,3.57
2018-10-21T04:45:40.706Z,3.54
2018-10-21T04:46:40.785Z,3.54
2018-10-21T04:47:40.538Z,3.57
2018-10-21T04:48:40.456Z,3.53
2018-10-21T04:49:40.367Z,3.56
2018-10-21T04:50:40.282Z,3.57
2018-10-21T04:51:40.197Z,3.53
2018-10-21T04:52:40.115Z,3.57
2018-10-21T04:53:40.029Z,3.54
2018-10-21T04:54:39.944Z,3.51
2018-10-21T04:55:39.909Z,3.48
2018-10-21T04:56:39.775Z,3.46
2018-10-21T04:57:39.689Z,3.53
2018-10-21T04:58:39.603Z,3.43
2018-10-21T04:59:39.518Z,3.44
2018-10-21T05:00:39.498Z,3.46
2018-10-21T05:01:39.347Z,3.39
2018-10-21T05:02:39.264Z,3.43
2018-10-21T05:03:39.180Z,3.39
2018-10-21T05:04:39.095Z,3.43
2018-10-21T05:05:39.011Z,3.43
2018-10-21T05:06:38.924Z,3.43
2018-10-21T05:07:38.938Z,3.43
2018-10-21T05:08:38.759Z,3.41
2018-10-21T05:09:38.670Z,3.43
2018-10-21T05:10:38.585Z,3.47
2018-10-21T05:11:38.504Z,3.37
2018-10-21T05:12:38.415Z,3.41
2018-10-21T05:13:38.334Z,3.34
2018-10-21T05:14:38.244Z,3.32
2018-10-21T05:15:38.163Z,3.34
2018-10-21T05:16:38.111Z,3.35
2018-10-21T05:17:37.989Z,3.41
2018-10-21T05:18:37.910Z,3.34
2018-10-21T05:19:37.824Z,3.32
2018-10-21T05:20:37.736Z,3.34
2018-10-21T05:21:37.650Z,3.35
2018-10-21T05:22:37.565Z,3.43
2018-10-21T05:23:37.482Z,3.48
2018-10-21T05:24:37.398Z,3.43
2018-10-21T05:25:37.310Z,3.43
2018-10-21T05:26:37.224Z,3.47
2018-10-21T05:27:37.140Z,3.43
2018-10-21T05:28:37.055Z,3.41
2018-10-21T05:29:36.970Z,3.43
2018-10-21T05:30:36.885Z,3.47
2018-10-21T05:31:36.801Z,3.44
2018-10-21T05:32:36.715Z,3.39
2018-10-21T05:33:36.630Z,3.44
2018-10-21T05:34:36.545Z,3.54
2018-10-21T05:35:36.464Z,3.54
2018-10-21T05:36:36.478Z,3.61
2018-10-21T05:37:36.291Z,3.62
2018-10-21T05:38:36.206Z,3.56
2018-10-21T05:39:36.120Z,3.54
2018-10-21T05:40:36.065Z,3.54
2018-10-21T05:41:36.050Z,3.56
2018-10-21T05:42:35.865Z,3.61
2018-10-21T05:43:35.781Z,3.56
2018-10-21T05:44:35.700Z,3.56
2018-10-21T05:45:35.611Z,3.61
2018-10-21T05:46:35.576Z,3.69
2018-10-21T05:47:35.441Z,3.72
2018-10-21T05:48:35.361Z,3.72
2018-10-21T05:49:35.275Z,3.59
2018-10-21T05:50:35.186Z,3.65
2018-10-21T05:51:35.351Z,3.54
2018-10-21T05:52:35.017Z,3.57
2018-10-21T05:53:34.932Z,3.50
2018-10-21T05:54:34.848Z,3.39
2018-10-21T05:55:34.762Z,3.44
2018-10-21T05:56:34.677Z,3.37
2018-10-21T05:57:34.596Z,3.47
2018-10-21T05:58:34.508Z,3.50
2018-10-21T05:59:34.422Z,3.44
2018-10-21T06:00:34.337Z,3.46
2018-10-21T06:01:34.252Z,3.51
2018-10-21T06:02:34.169Z,3.51
2018-10-21T06:03:34.083Z,3.51
2018-10-21T06:04:34.000Z,3.50
2018-10-21T06:05:33.912Z,3.59
2018-10-21T06:06:33.830Z,3.59
2018-10-21T06:07:33.743Z,3.51
2018-10-21T06:08:33.660Z,3.59
2018-10-21T06:09:33.575Z,3.62
2018-10-21T06:10:33.489Z,3.64
2018-10-21T06:11:33.404Z,3.64
2018-10-21T06:12:33.319Z,3.62
2018-10-21T06:13:33.236Z,3.64
2018-10-21T06:14:33.150Z,3.75
2018-10-21T06:15:33.065Z,3.79
2018-10-21T06:16:32.981Z,3.84
2018-10-21T06:17:32.895Z,3.80
2018-10-21T06:18:32.810Z,3.83
2018-10-21T06:19:32.727Z,3.75
2018-10-21T06:20:32.642Z,3.82
2018-10-21T06:21:32.556Z,3.80
2018-10-21T06:22:32.472Z,3.92
2018-10-21T06:23:32.450Z,3.87
2018-10-21T06:24:32.307Z,3.97
2018-10-21T06:25:32.222Z,3.89
2018-10-21T06:26:32.133Z,4.00
2018-10-21T06:27:32.098Z,3.98
2018-10-21T06:28:31.964Z,3.94
2018-10-21T06:29:31.879Z,3.83
2018-10-21T06:30:31.799Z,3.93
2018-10-21T06:31:31.811Z,3.97
2018-10-21T06:32:31.626Z,4.10
2018-10-21T06:33:31.555Z,4.07
2018-10-21T06:34:31.456Z,4.02
2018-10-21T06:35:31.371Z,4.07
2018-10-21T06:36:31.306Z,4.08
2018-10-21T06:37:31.202Z,4.10
2018-10-21T06:38:31.119Z,4.07
2018-10-21T06:39:31.034Z,4.12
2018-10-21T06:40:30.950Z,4.05
2018-10-21T06:41:30.865Z,4.15
2018-10-21T06:42:30.780Z,4.04
2018-10-21T06:43:30.695Z,4.07
2018-10-21T06:44:30.613Z,4.23
2018-10-21T06:45:30.576Z,4.20
2018-10-21T06:46:30.442Z,4.18
2018-10-21T06:47:30.358Z,4.19
2018-10-21T06:48:30.408Z,4.26
2018-10-21T06:49:30.188Z,4.16
2018-10-21T06:50:30.106Z,4.11
2018-10-21T06:51:30.020Z,4.20
2018-10-21T06:52:29.937Z,4.22
2018-10-21T06:53:29.851Z,4.29
2018-10-21T06:54:29.767Z,4.25
2018-10-21T06:55:29.683Z,4.28
2018-10-21T06:56:29.714Z,4.22
2018-10-21T06:57:29.935Z,4.26
2018-10-21T06:58:29.430Z,4.32
2018-10-21T06:59:29.346Z,4.28
2018-10-21T07:00:29.263Z,4.29
2018-10-21T07:01:29.177Z,4.20
2018-10-21T07:02:29.093Z,4.15
2018-10-21T07:03:29.059Z,4.19
2018-10-21T07:04:28.972Z,4.22
2018-10-21T07:05:28.841Z,4.10
2018-10-21T07:06:28.760Z,4.22
2018-10-21T07:07:28.674Z,4.11
2018-10-21T07:08:28.592Z,4.15
2018-10-21T07:09:28.504Z,4.08
2018-10-21T07:10:28.420Z,4.15
2018-10-21T07:11:28.337Z,4.19
2018-10-21T07:12:28.252Z,4.34
2018-10-21T07:13:28.318Z,4.40
2018-10-21T07:14:28.084Z,4.36
2018-10-21T07:15:28.015Z,4.25
2018-10-21T07:16:28.065Z,4.30
2018-10-21T07:17:27.831Z,4.30
2018-10-21T07:18:27.746Z,4.26
2018-10-21T07:19:27.664Z,4.32
2018-10-21T07:20:27.580Z,4.34
2018-10-21T07:21:27.495Z,4.34
2018-10-21T07:22:27.411Z,4.36
2018-10-21T07:23:27.327Z,4.44
2018-10-21T07:24:27.494Z,4.48
2018-10-21T07:25:27.164Z,4.46
2018-10-21T07:26:27.075Z,4.56
2018-10-21T07:27:26.990Z,4.52
2018-10-21T07:28:26.951Z,4.48
2018-10-21T07:29:26.824Z,4.52
2018-10-21T07:30:26.738Z,4.68
2018-10-21T07:31:26.655Z,4.79
2018-10-21T07:32:26.574Z,4.84
2018-10-21T07:33:26.486Z,4.87
2018-10-21T07:34:26.402Z,4.92
2018-10-21T07:35:26.321Z,4.96
2018-10-21T07:36:26.377Z,5.05
2018-10-21T07:37:26.151Z,5.05
2018-10-21T07:38:26.066Z,5.14
2018-10-21T07:39:25.983Z,5.20
2018-10-21T07:40:25.900Z,5.14
2018-10-21T07:41:25.820Z,5.20
2018-10-21T07:42:25.733Z,5.28
2018-10-21T07:43:25.648Z,5.32
2018-10-21T07:44:25.565Z,5.32
2018-10-21T07:45:25.483Z,5.50
2018-10-21T07:46:25.402Z,5.49
2018-10-21T07:47:25.317Z,5.53
2018-10-21T07:48:25.235Z,5.53
2018-10-21T07:49:25.147Z,5.63
2018-10-21T07:50:25.064Z,5.78
2018-10-21T07:51:24.983Z,5.90
2018-10-21T07:52:24.898Z,5.92
2018-10-21T07:53:24.814Z,6.03
2018-10-21T07:54:24.733Z,6.06
2018-10-21T07:55:24.753Z,6.15
2018-10-21T07:56:24.567Z,6.13
2018-10-21T07:57:24.486Z,6.32
2018-10-21T07:58:24.402Z,6.26
2018-10-21T07:59:24.318Z,6.17
2018-10-21T08:00:24.286Z,6.27
2018-10-21T08:01:24.202Z,6.26
2018-10-21T08:02:24.071Z,6.42
2018-10-21T08:03:23.986Z,6.41
2018-10-21T08:04:23.904Z,6.47
2018-10-21T08:05:23.970Z,6.54
2018-10-21T08:06:23.838Z,6.54
2018-10-21T08:07:23.656Z,6.73
2018-10-21T08:08:23.574Z,6.75
2018-10-21T08:09:23.489Z,6.76
2018-10-21T08:10:23.408Z,6.87
2018-10-21T08:11:23.327Z,6.86
2018-10-21T08:12:23.244Z,6.98
2018-10-21T08:13:23.161Z,6.99
2018-10-21T08:14:23.079Z,7.02
2018-10-21T08:15:22.997Z,6.99
2018-10-21T08:16:22.919Z,7.03
2018-10-21T08:17:22.832Z,7.08
2018-10-21T08:18:22.754Z,7.13
2018-10-21T08:19:22.669Z,7.16
2018-10-21T08:20:22.587Z,7.13
2018-10-21T08:21:22.619Z,7.11
2018-10-21T08:22:22.424Z,7.26
2018-10-21T08:23:22.341Z,7.16
2018-10-21T08:24:22.262Z,7.31
2018-10-21T08:25:22.178Z,7.26
2018-10-21T08:26:22.096Z,7.35
2018-10-21T08:27:22.157Z,7.47
2018-10-21T08:28:21.934Z,7.44
2018-10-21T08:29:21.851Z,7.52
2018-10-21T08:30:21.821Z,7.52
2018-10-21T08:31:21.689Z,7.52
2018-10-21T08:32:21.613Z,7.62
2018-10-21T08:33:21.525Z,7.57
2018-10-21T08:34:21.444Z,7.68
2018-10-21T08:35:21.372Z,7.72
2018-10-21T08:36:21.283Z,7.63
2018-10-21T08:37:21.201Z,7.70
2018-10-21T08:38:21.118Z,7.75
2018-10-21T08:39:21.039Z,7.78
2018-10-21T08:40:20.960Z,7.81
2018-10-21T08:41:20.873Z,7.86
2018-10-21T08:42:20.796Z,7.99
2018-10-21T08:43:20.713Z,7.96
2018-10-21T08:44:20.636Z,8.01
2018-10-21T08:45:20.548Z,8.07
2018-10-21T08:46:20.618Z,8.15
2018-10-21T08:47:20.403Z,8.17
2018-10-21T08:48:20.306Z,8.22
2018-10-21T08:49:20.420Z,8.25
2018-10-21T08:50:20.146Z,8.36
2018-10-21T08:51:20.063Z,8.40
2018-10-21T08:52:19.981Z,8.61
2018-10-21T08:53:19.900Z,8.61
2018-10-21T08:54:19.820Z,8.70
2018-10-21T08:55:19.747Z,8.69
2018-10-21T08:56:19.657Z,8.73
2018-10-21T08:57:19.627Z,8.76
2018-10-21T08:58:19.497Z,8.80
2018-10-21T08:59:19.416Z,8.84
2018-10-21T09:00:19.333Z,8.88
2018-10-21T09:01:19.289Z,8.87
2018-10-21T09:02:19.225Z,8.98
2018-10-21T09:03:19.297Z,9.05
2018-10-21T09:04:19.107Z,9.00
2018-10-21T09:05:18.932Z,9.13
2018-10-21T09:06:18.852Z,9.14
2018-10-21T09:07:18.959Z,9.17
2018-10-21T09:08:18.691Z,9.14
2018-10-21T09:09:18.618Z,9.22
2018-10-21T09:10:18.676Z,9.28
2018-10-21T09:11:18.449Z,9.32
2018-10-21T09:12:18.371Z,9.34
2018-10-21T09:13:18.437Z,9.43
2018-10-21T09:14:18.208Z,9.47
2018-10-21T09:15:18.313Z,9.60
2018-10-21T09:16:18.182Z,9.61
2018-10-21T09:17:17.968Z,9.70
2018-10-21T09:18:17.886Z,9.70
2018-10-21T09:19:18.105Z,9.79
2018-10-21T09:20:17.726Z,9.88
2018-10-21T09:21:17.647Z,9.98
2018-10-21T09:22:17.642Z,9.98
2018-10-21T09:23:17.485Z,10.15
2018-10-21T09:24:17.405Z,10.16
2018-10-21T09:25:17.569Z,10.34
2018-10-21T09:26:17.245Z,10.46
2018-10-21T09:27:17.165Z,10.43
2018-10-21T09:28:17.171Z,10.44
2018-10-21T09:29:17.007Z,10.56
2018-10-21T09:30:16.927Z,10.47
2018-10-21T09:31:16.960Z,10.69
2018-10-21T09:32:16.767Z,10.73
2018-10-21T09:33:16.740Z,10.87
2018-10-21T09:34:16.733Z,10.88
2018-10-21T09:35:16.530Z,10.95
2018-10-21T09:36:16.450Z,11.02
2018-10-21T09:37:16.492Z,10.96
2018-10-21T09:38:16.290Z,11.14
2018-10-21T09:39:16.212Z,11.17
2018-10-21T09:40:16.213Z,11.28
2018-10-21T09:41:16.054Z,11.29
2018-10-21T09:42:16.034Z,11.51
2018-10-21T09:43:15.948Z,11.60
2018-10-21T09:44:15.818Z,11.68
2018-10-21T09:45:15.737Z,11.75
2018-10-21T09:46:15.703Z,11.75
2018-10-21T09:47:15.732Z,11.83
2018-10-21T09:48:15.502Z,11.87
2018-10-21T09:49:15.553Z,12.00
2018-10-21T09:50:15.346Z,12.15
2018-10-21T09:51:15.265Z,12.23
2018-10-21T09:52:15.220Z,12.36
2018-10-21T09:53:15.107Z,12.39
2018-10-21T09:54:15.029Z,12.34
2018-10-21T09:55:14.990Z,12.45
2018-10-21T09:56:14.874Z,12.59
2018-10-21T09:57:14.795Z,12.64
2018-10-21T09:58:14.787Z,12.85
2018-10-21T09:59:14.642Z,12.89
2018-10-21T10:00:14.560Z,13.00
2018-10-21T10:01:14.611Z,13.10
2018-10-21T10:02:14.404Z,13.15
2018-10-21T10:03:14.330Z,13.21
2018-10-21T10:04:14.372Z,13.28
2018-10-21T10:05:14.299Z,13.19
2018-10-21T10:06:14.093Z,13.21
2018-10-21T10:07:14.162Z,13.44
2018-10-21T10:09:13.858Z,13.70
2018-10-21T10:10:13.836Z,13.68
2018-10-21T10:11:13.705Z,13.78
2018-10-21T10:12:13.627Z,13.70
2018-10-21T10:13:13.587Z,13.77
2018-10-21T10:14:13.470Z,13.84
2018-10-21T10:15:13.393Z,13.81
2018-10-21T10:16:13.379Z,13.96
2018-10-21T10:17:13.237Z,13.98
2018-10-21T10:18:13.160Z,14.01
2018-10-21T10:19:13.165Z,13.98
2018-10-21T10:20:13.010Z,13.92
2018-10-21T10:21:12.928Z,13.96
2018-10-21T10:22:12.953Z,14.13
2018-10-21T10:23:12.837Z,14.13
2018-10-21T10:24:12.697Z,14.07
2018-10-21T10:25:12.700Z,14.13
2018-10-21T10:26:12.542Z,14.10
2018-10-21T10:27:12.465Z,13.96
2018-10-21T10:28:12.487Z,14.01
2018-10-21T10:29:12.312Z,13.95
2018-10-21T10:30:12.235Z,14.11
2018-10-21T10:31:12.193Z,14.16
2018-10-21T10:32:12.083Z,14.14
2018-10-21T10:33:12.000Z,14.28
2018-10-21T10:34:12.088Z,14.34
2018-10-21T10:35:11.848Z,14.39
2018-10-21T10:36:11.811Z,14.47
2018-10-21T10:37:11.745Z,14.64
2018-10-21T10:38:11.618Z,14.69
2018-10-21T10:39:11.542Z,14.93
2018-10-21T10:40:11.529Z,15.06
2018-10-21T10:41:11.388Z,15.16
2018-10-21T10:42:11.346Z,15.30
2018-10-21T10:43:11.301Z,15.66
2018-10-21T10:44:11.261Z,15.52
2018-10-21T10:45:11.083Z,15.43
2018-10-21T10:46:11.013Z,15.34
2018-10-21T10:47:10.932Z,15.21
2018-10-21T10:48:10.860Z,15.26
2018-10-21T10:49:10.943Z,15.20
2018-10-21T10:50:10.704Z,15.15
2018-10-21T10:51:10.629Z,15.03
2018-10-21T10:52:10.627Z,15.10
2018-10-21T10:53:10.592Z,15.05
2018-10-21T10:54:10.403Z,15.08
2018-10-21T10:55:10.357Z,15.15
2018-10-21T10:56:10.251Z,15.24
2018-10-21T10:57:10.176Z,15.21
2018-10-21T10:58:10.147Z,15.26
2018-10-21T10:59:10.022Z,15.31
2018-10-21T11:00:10.271Z,15.45
2018-10-21T11:01:09.884Z,15.42
2018-10-21T11:02:09.796Z,15.43
2018-10-21T11:03:09.720Z,15.49
2018-10-21T11:04:09.736Z,15.59
2018-10-21T11:05:09.569Z,15.79
2018-10-21T11:06:09.546Z,15.92
2018-10-21T11:07:09.468Z,16.14
2018-10-21T11:08:09.343Z,16.47
2018-10-21T11:09:09.266Z,16.77
2018-10-21T11:10:09.231Z,17.54
2018-10-21T11:11:09.116Z,17.76
2018-10-21T11:12:09.042Z,18.21
2018-10-21T11:13:09.028Z,18.03
2018-10-21T11:14:08.897Z,17.95
2018-10-21T11:15:08.818Z,17.30
2018-10-21T11:16:08.762Z,17.10
2018-10-21T11:17:08.670Z,16.88
2018-10-21T11:18:08.599Z,16.78
2018-10-21T11:19:08.573Z,16.95
2018-10-21T11:20:08.449Z,17.08
2018-10-21T11:21:08.376Z,17.17
2018-10-21T11:22:08.310Z,17.30
2018-10-21T11:23:08.235Z,17.32
2018-10-21T11:24:08.156Z,17.35
2018-10-21T11:25:08.195Z,17.18
2018-10-21T11:26:08.010Z,16.85
2018-10-21T11:27:07.937Z,16.63
2018-10-21T11:28:07.919Z,16.45
2018-10-21T11:29:07.789Z,17.11
2018-10-21T11:30:07.718Z,18.00
2018-10-21T11:31:07.725Z,18.55
2018-10-21T11:32:07.570Z,19.43
2018-10-21T11:33:07.496Z,19.80
2018-10-21T11:34:07.447Z,18.99
2018-10-21T11:35:07.353Z,18.92
2018-10-21T11:36:07.280Z,18.95
2018-10-21T11:37:07.291Z,19.24
2018-10-21T11:38:07.134Z,19.36
2018-10-21T11:39:07.065Z,19.69
2018-10-21T11:40:07.107Z,19.97
2018-10-21T11:41:06.920Z,20.51
2018-10-21T11:42:06.849Z,21.16
2018-10-21T11:43:06.899Z,21.63
2018-10-21T11:44:06.709Z,21.91
2018-10-21T11:45:06.636Z,21.72
2018-10-21T11:46:06.630Z,20.69
2018-10-21T11:47:06.498Z,20.79
2018-10-21T11:48:06.428Z,20.53
2018-10-21T11:49:06.400Z,21.38
2018-10-21T11:50:06.295Z,21.27
2018-10-21T11:51:06.219Z,21.54
2018-10-21T11:52:06.205Z,21.17
2018-10-21T11:53:06.081Z,21.46
2018-10-21T11:54:06.012Z,21.04
2018-10-21T11:55:05.969Z,21.33
2018-10-21T11:56:05.877Z,21.86
2018-10-21T11:57:05.812Z,21.97
2018-10-21T11:58:05.855Z,21.09
2018-10-21T11:59:05.671Z,20.40
2018-10-21T12:00:05.604Z,20.99
2018-10-21T12:01:05.622Z,21.44
2018-10-21T12:02:05.467Z,21.53
2018-10-21T12:03:05.449Z,21.24
2018-10-21T12:04:05.337Z,21.45
2018-10-21T12:05:05.271Z,21.05
2018-10-21T12:06:05.194Z,21.05
2018-10-21T12:07:05.136Z,20.84
2018-10-21T12:08:05.064Z,21.30
2018-10-21T12:09:04.994Z,20.87
2018-10-21T12:10:04.947Z,20.80
2018-10-21T12:11:04.859Z,20.47
2018-10-21T12:12:04.865Z,20.75
2018-10-21T12:13:04.772Z,21.05
2018-10-21T12:14:04.653Z,20.94
2018-10-21T12:15:04.636Z,20.93
2018-10-21T12:16:04.528Z,20.64
2018-10-21T12:17:04.453Z,20.74
2018-10-21T12:18:04.382Z,20.57
2018-10-21T12:19:04.364Z,20.09
2018-10-21T12:20:04.370Z,19.61
2018-10-21T12:21:04.178Z,19.24
2018-10-21T12:22:04.235Z,18.95
2018-10-21T12:23:04.093Z,18.90
2018-10-21T12:24:03.973Z,18.52
2018-10-21T12:25:03.929Z,18.03
2018-10-21T12:26:03.836Z,17.67
2018-10-21T12:27:03.766Z,17.25
2018-10-21T12:28:03.753Z,17.11
2018-10-21T12:29:03.707Z,17.08
2018-10-21T12:30:03.559Z,17.03
2018-10-21T12:31:03.508Z,16.78
2018-10-21T12:32:03.415Z,16.80
2018-10-21T12:33:03.344Z,16.75
2018-10-21T12:34:03.292Z,16.85
2018-10-21T12:35:03.212Z,16.98
2018-10-21T12:36:03.132Z,17.00
2018-10-21T12:37:03.068Z,17.15
2018-10-21T12:38:02.992Z,17.15
2018-10-21T12:39:02.922Z,16.99
2018-10-21T12:40:02.869Z,16.84
2018-10-21T12:41:02.792Z,16.89
2018-10-21T12:42:02.705Z,16.80
2018-10-21T12:43:02.694Z,16.84
2018-10-21T12:44:02.578Z,16.92
2018-10-21T12:45:02.491Z,16.84
2018-10-21T12:46:02.471Z,16.88
2018-10-21T12:47:02.405Z,16.75
2018-10-21T12:48:02.281Z,16.65
2018-10-21T12:49:02.254Z,16.45
2018-10-21T12:50:02.136Z,16.35
2018-10-21T12:51:02.063Z,16.52
2018-10-21T12:52:02.095Z,16.48
2018-10-21T12:53:01.967Z,16.34
2018-10-21T12:54:01.930Z,16.29
2018-10-21T12:55:01.905Z,16.44
2018-10-21T12:56:01.713Z,16.42
2018-10-21T12:57:01.632Z,16.45
2018-10-21T12:58:01.617Z,16.56
2018-10-21T12:59:01.490Z,16.63
2018-10-21T13:00:01.424Z,16.84
2018-10-21T13:01:01.404Z,17.23
2018-10-21T13:02:01.270Z,17.32
2018-10-21T13:03:01.250Z,17.30
2018-10-21T13:04:01.131Z,17.20
2018-10-21T13:05:01.056Z,17.17
2018-10-21T13:06:00.983Z,17.10
2018-10-21T13:07:00.915Z,17.05
2018-10-21T13:08:00.839Z,17.07
2018-10-21T13:09:00.818Z,17.00
2018-10-21T13:10:00.760Z,16.81